Time;durP1;ratioP1;P1;durP2;ratioP2;P2;SDS_P1;SDS_P2;PMS_P1;PMS_P2;Temp;Humidity;BMP_temperature;BMP_pressure;BME280_temperature;BME280_humidity;BME280_pressure;Samples;Min_cycle;Max_cycle;Signal;HPM_P1;HPM_P2
2023/10/04 00:00:33;;;;;;;8.75;4.47;;;;;;;25.17;40.75;100046.00;4483690;32;33060;-69
2023/10/04 00:03:01;;;;;;;8.77;4.43;;;;;;;25.15;40.72;100048.97;4483783;32;33429;-67
2023/10/04 00:05:30;;;;;;;10.50;4.50;;;;;;;25.14;40.72;100050.06;4483850;32;34780;-69
2023/10/04 00:07:59;;;;;;;8.23;4.25;;;;;;;25.15;40.66;100045.41;4483730;32;33951;-68
2023/10/04 00:10:27;;;;;;;8.88;4.47;;;;;;;25.16;40.67;100047.91;4483693;32;33423;-66
2023/10/04 00:12:56;;;;;;;9.90;4.40;;;;;;;25.14;40.70;100039.12;4483649;32;34648;-67
2023/10/04 00:15:25;;;;;;;11.15;4.53;;;;;;;25.13;40.69;100047.53;4483753;32;34532;-67
2023/10/04 00:17:54;;;;;;;7.62;4.50;;;;;;;25.12;40.61;100046.69;4483637;32;34447;-68
2023/10/04 00:20:22;;;;;;;10.63;4.65;;;;;;;25.14;40.67;100044.59;4483612;32;34186;-69
2023/10/04 00:22:50;;;;;;;9.27;4.87;;;;;;;25.12;40.79;100046.69;4483621;32;34624;-66
2023/10/04 00:25:20;;;;;;;7.97;4.32;;;;;;;25.12;40.71;100049.44;4483246;32;34003;-65
2023/10/04 00:27:52;;;;;;;8.73;4.45;;;;;;;25.13;40.71;100053.00;4469170;32;33720;-66
2023/10/04 00:30:20;;;;;;;8.00;4.62;;;;;;;25.14;40.75;100051.94;4469506;32;33413;-65
2023/10/04 00:32:47;;;;;;;8.32;4.18;;;;;;;25.12;40.74;100056.78;4456386;32;32891;-65
2023/10/04 00:35:17;;;;;;;9.02;4.65;;;;;;;25.14;40.64;100060.97;4483290;32;34571;-67
2023/10/04 00:37:48;;;;;;;7.28;4.50;;;;;;;25.12;40.78;100060.34;4483447;32;33645;-69
2023/10/04 00:40:21;;;;;;;8.70;4.53;;;;;;;25.12;40.77;100065.81;4444216;32;33447;-67
2023/10/04 00:42:53;;;;;;;9.95;4.72;;;;;;;25.10;40.82;100065.22;4483284;32;33943;-65
2023/10/04 00:45:22;;;;;;;8.23;4.12;;;;;;;25.11;40.82;100069.62;4483374;32;33661;-64
2023/10/04 00:47:59;;;;;;;10.10;4.63;;;;;;;25.13;40.80;100072.09;4456337;32;34662;-66
2023/10/04 00:50:31;;;;;;;9.27;4.32;;;;;;;25.14;40.69;100069.16;4469200;32;33277;-69
2023/10/04 00:53:01;;;;;;;8.82;4.37;;;;;;;25.11;40.75;100077.81;4469317;32;33850;-66
2023/10/04 00:55:29;;;;;;;8.75;4.50;;;;;;;25.10;40.76;100081.59;4483273;32;33969;-67
2023/10/04 00:57:57;;;;;;;9.40;4.28;;;;;;;25.07;40.88;100084.78;4456198;32;33778;-67
2023/10/04 01:00:26;;;;;;;8.18;4.57;;;;;;;25.02;40.95;100081.88;4468746;32;33746;-66
2023/10/04 01:02:53;;;;;;;7.00;4.12;;;;;;;25.00;40.99;100084.03;4468985;32;34773;-68
2023/10/04 01:05:26;;;;;;;7.87;4.37;;;;;;;25.02;40.93;100072.88;4482951;32;33931;-67
2023/10/04 01:07:55;;;;;;;8.82;4.22;;;;;;;25.05;40.80;100081.44;4482717;32;34597;-67
2023/10/04 01:10:31;;;;;;;10.43;4.70;;;;;;;25.05;40.81;100075.97;4482970;32;33209;-68
2023/10/04 01:13:00;;;;;;;9.60;4.80;;;;;;;25.06;40.79;100074.06;4482751;32;33999;-68
2023/10/04 01:15:36;;;;;;;10.25;4.82;;;;;;;25.05;40.77;100073.25;4455837;32;33874;-67
2023/10/04 01:18:07;;;;;;;7.75;4.22;;;;;;;25.07;40.74;100073.00;4469835;32;34240;-68
2023/10/04 01:20:37;;;;;;;7.95;4.70;;;;;;;25.05;40.70;100073.25;4465761;32;33497;-67
2023/10/04 01:23:05;;;;;;;;;;;;;;;25.05;40.71;100075.97;4453640;32;34675;-66
2023/10/04 01:25:34;;;;;;;8.48;4.35;;;;;;;25.17;40.48;100081.50;4467154;32;34885;-68
2023/10/04 01:28:06;;;;;;;8.50;4.80;;;;;;;25.08;40.59;100089.19;4466978;32;34366;-66
2023/10/04 01:30:36;;;;;;;6.57;3.90;;;;;;;25.05;40.67;100084.16;4465756;32;34319;-67
2023/10/04 01:33:07;;;;;;;8.82;4.65;;;;;;;25.10;40.65;100092.53;4466727;32;33922;-68
2023/10/04 01:35:37;;;;;;;8.88;4.72;;;;;;;25.09;40.65;100092.78;4466914;32;34029;-65
2023/10/04 01:38:08;;;;;;;10.02;4.45;;;;;;;25.08;40.65;100085.63;4467096;32;34617;-67
2023/10/04 01:40:37;;;;;;;8.30;3.85;;;;;;;25.08;40.65;100091.91;4455278;32;34314;-68
2023/10/04 01:43:18;;;;;;;7.20;4.43;;;;;;;25.07;40.65;100092.97;4469179;32;33935;-67
2023/10/04 01:45:48;;;;;;;6.43;3.72;;;;;;;25.07;40.64;100097.56;4469099;32;33887;-65
2023/10/04 01:48:16;;;;;;;8.85;4.45;;;;;;;25.04;40.57;100107.09;4473409;32;34567;-69
2023/10/04 01:50:44;;;;;;;8.45;4.45;;;;;;;25.05;40.59;100095.09;4470890;32;33396;-67
2023/10/04 01:53:12;;;;;;;7.75;4.25;;;;;;;25.06;40.66;100101.37;4484608;32;34911;-70
2023/10/04 01:55:40;;;;;;;10.02;4.55;;;;;;;25.05;40.68;100116.94;4484822;32;34805;-68
2023/10/04 01:58:08;;;;;;;8.80;4.80;;;;;;;25.05;40.66;100108.75;4485153;32;34821;-69
2023/10/04 02:00:36;;;;;;;7.05;4.28;;;;;;;25.04;40.68;100123.47;4484746;32;33229;-69
2023/10/04 02:03:05;;;;;;;9.80;4.95;;;;;;;25.04;40.66;100114.41;4485008;32;34387;-66
2023/10/04 02:05:37;;;;;;;12.03;5.23;;;;;;;25.05;40.64;100132.47;4458034;32;33864;-67
2023/10/04 02:08:09;;;;;;;8.63;5.03;;;;;;;25.07;40.60;100120.28;4471049;32;34041;-68
2023/10/04 02:10:37;;;;;;;7.80;4.47;;;;;;;25.07;40.64;100125.75;4484770;32;33650;-68
2023/10/04 02:13:11;;;;;;;7.97;4.40;;;;;;;25.07;40.61;100131.22;4484484;32;34776;-68
2023/10/04 02:15:48;;;;;;;;;;;;;;;25.07;40.61;100123.00;4470648;32;32927;-68
2023/10/04 02:18:15;;;;;;;9.95;4.60;;;;;;;25.16;40.46;100132.56;4481764;32;34887;-66
2023/10/04 02:20:48;;;;;;;7.35;4.12;;;;;;;25.08;40.62;100124.69;4484639;31;34457;-67
2023/10/04 02:23:18;;;;;;;7.72;4.12;;;;;;;25.04;40.69;100134.38;4484583;32;33596;-66
2023/10/04 02:25:47;;;;;;;8.73;4.28;;;;;;;25.04;40.70;100148.03;4457476;32;32996;-67
2023/10/04 02:28:18;;;;;;;9.77;4.75;;;;;;;25.04;40.71;100142.56;4470375;32;33565;-67
2023/10/04 02:30:47;;;;;;;7.53;4.20;;;;;;;25.03;40.75;100137.31;4470378;32;33434;-66
2023/10/04 02:33:16;;;;;;;9.13;4.32;;;;;;;25.04;40.67;100141.72;4484362;32;33774;-67
2023/10/04 02:35:44;;;;;;;9.10;4.43;;;;;;;25.03;40.68;100138.16;4470426;32;33696;-66
2023/10/04 02:38:19;;;;;;;8.68;4.15;;;;;;;25.02;40.75;100155.59;4484356;32;33982;-65
2023/10/04 02:40:48;;;;;;;7.93;4.15;;;;;;;25.03;40.83;100167.34;4458614;32;33139;-65
2023/10/04 02:43:17;;;;;;;9.15;4.62;;;;;;;25.02;40.72;100169.25;4470372;31;34350;-65
2023/10/04 02:45:47;;;;;;;9.52;4.60;;;;;;;25.01;40.77;100169.50;4484542;32;34040;-66
2023/10/04 02:48:19;;;;;;;7.87;4.10;;;;;;;25.00;40.75;100167.81;4467066;32;33920;-65
2023/10/04 02:50:47;;;;;;;8.83;4.10;;;;;;;25.06;40.67;100184.13;4468449;32;33722;-67
2023/10/04 02:53:20;;;;;;;8.07;4.15;;;;;;;25.00;40.78;100185.03;4467749;32;33947;-66
2023/10/04 02:55:53;;;;;;;6.53;4.00;;;;;;;25.02;40.79;100182.91;4468813;32;34706;-67
2023/10/04 02:58:22;;;;;;;8.65;3.75;;;;;;;24.99;40.80;100186.06;4467557;32;33807;-66
2023/10/04 03:00:51;;;;;;;8.20;4.50;;;;;;;25.00;40.82;100186.94;4468707;32;33097;-68
2023/10/04 03:03:22;;;;;;;7.87;3.97;;;;;;;25.06;40.74;100188.75;4468792;32;34677;-66
2023/10/04 03:05:51;;;;;;;9.27;4.03;;;;;;;25.00;40.77;100190.50;4467323;32;33679;-65
2023/10/04 03:08:20;;;;;;;7.90;4.12;;;;;;;25.02;40.75;100199.28;4468604;32;33439;-65
2023/10/04 03:10:50;;;;;;;8.63;4.45;;;;;;;25.01;40.81;100199.53;4467424;32;33451;-67
2023/10/04 03:13:26;;;;;;;6.72;3.85;;;;;;;25.00;40.83;100212.34;4468544;32;33236;-67
2023/10/04 03:15:54;;;;;;;6.50;3.78;;;;;;;24.98;40.84;100208.97;4468872;32;33886;-65
2023/10/04 03:18:25;;;;;;;7.73;3.93;;;;;;;24.98;40.79;100211.72;4483390;32;34832;-68
2023/10/04 03:20:56;;;;;;;8.32;3.55;;;;;;;24.98;40.83;100222.63;4484284;32;33304;-68
2023/10/04 03:23:25;;;;;;;9.75;3.35;;;;;;;24.97;40.86;100222.88;4484453;32;34693;-67
2023/10/04 03:25:54;;;;;;;6.82;3.40;;;;;;;24.96;40.87;100222.03;4457201;32;33577;-66
2023/10/04 03:28:26;;;;;;;6.78;3.75;;;;;;;24.95;40.90;100234.03;4484153;32;33803;-67
2023/10/04 03:30:56;;;;;;;8.35;3.42;;;;;;;24.93;40.98;100231.50;4484069;32;33927;-64
2023/10/04 03:33:41;;;;;;;7.90;3.20;;;;;;;24.93;41.01;100231.50;4470132;32;33937;-65
2023/10/04 03:36:18;;;;;;;5.55;2.87;;;;;;;24.89;41.11;100232.19;4465670;32;34052;-67
2023/10/04 03:38:49;;;;;;;7.90;3.60;;;;;;;24.87;41.12;100234.31;4477800;32;33769;-67
2023/10/04 03:41:19;;;;;;;7.50;2.85;;;;;;;24.85;41.14;100244.59;4469456;32;34066;-66
2023/10/04 03:43:47;;;;;;;9.52;2.87;;;;;;;24.85;41.09;100244.59;4468411;32;34817;-66
2023/10/04 03:46:18;;;;;;;7.60;3.03;;;;;;;24.84;41.12;100243.78;4468814;32;33276;-65
2023/10/04 03:48:48;;;;;;;7.35;2.90;;;;;;;24.86;41.07;100247.13;4475386;32;34957;-66
2023/10/04 03:51:20;;;;;;;7.03;2.83;;;;;;;24.84;41.17;100251.97;4483999;32;33480;-67
2023/10/04 03:53:50;;;;;;;5.87;3.00;;;;;;;24.86;41.08;100255.31;4457400;32;33723;-66
2023/10/04 03:56:20;;;;;;;6.72;2.37;;;;;;;24.82;41.25;100270.47;4483677;32;33805;-69
2023/10/04 03:58:51;;;;;;;4.87;2.80;;;;;;;24.82;41.18;100256.81;4457104;32;33558;-69
2023/10/04 04:01:20;;;;;;;4.80;2.65;;;;;;;24.82;41.14;100259.56;4483727;32;34411;-69
2023/10/04 04:03:51;;;;;;;8.77;2.80;;;;;;;24.80;41.21;100269.84;4483514;32;33727;-67
2023/10/04 04:06:18;;;;;;;5.82;2.53;;;;;;;24.83;41.18;100280.31;4483691;32;34524;-68
2023/10/04 04:08:49;;;;;;;6.32;2.90;;;;;;;24.84;41.13;100287.44;4483141;32;34689;-67
2023/10/04 04:11:18;;;;;;;7.18;2.60;;;;;;;24.81;41.15;100300.72;4470221;32;33165;-68
2023/10/04 04:13:46;;;;;;;8.27;2.97;;;;;;;24.86;40.97;100292.69;4483671;32;33797;-68
2023/10/04 04:16:17;;;;;;;7.18;2.60;;;;;;;24.88;41.02;100293.28;4483509;32;33709;-68
2023/10/04 04:18:47;;;;;;;7.95;3.00;;;;;;;24.89;40.94;100287.59;4469923;32;33783;-68
2023/10/04 04:21:16;;;;;;;5.97;2.97;;;;;;;24.89;40.98;100295.78;4483413;32;33320;-68
2023/10/04 04:23:44;;;;;;;6.03;2.45;;;;;;;24.90;40.90;100293.91;4483791;32;34728;-68
2023/10/04 04:26:13;;;;;;;4.97;2.45;;;;;;;24.91;40.80;100295.59;4483812;32;34734;-69
2023/10/04 04:28:41;;;;;;;6.43;3.00;;;;;;;24.91;40.81;100285.50;4482483;32;34679;-68
2023/10/04 04:31:14;;;;;;;4.90;2.03;;;;;;;24.92;40.87;100295.34;4483513;32;33087;-70
2023/10/04 04:33:44;;;;;;;6.78;2.28;;;;;;;24.91;40.82;100299.16;4483166;32;33819;-69
2023/10/04 04:36:21;;;;;;;4.00;2.17;;;;;;;24.91;40.77;100307.34;4483209;32;33943;-67
2023/10/04 04:38:50;;;;;;;6.53;2.80;;;;;;;24.91;40.74;100304.59;4470265;32;33862;-67
2023/10/04 04:41:24;;;;;;;5.95;2.35;;;;;;;24.93;40.80;100310.66;4483653;32;33372;-66
2023/10/04 04:43:52;;;;;;;4.72;1.98;;;;;;;24.92;40.71;100319.91;4466118;32;34191;-67
2023/10/04 04:46:22;;;;;;;6.90;2.42;;;;;;;24.91;40.66;100334.63;4478725;32;33618;-67
2023/10/04 04:48:54;;;;;;;6.55;2.35;;;;;;;24.91;40.60;100331.91;4482960;32;34752;-68
2023/10/04 04:51:23;;;;;;;6.28;2.40;;;;;;;24.93;40.62;100335.22;4483059;32;33351;-68
2023/10/04 04:53:51;;;;;;;4.95;2.15;;;;;;;24.94;40.59;100333.34;4483017;32;34779;-67
2023/10/04 04:56:21;;;;;;;4.93;2.45;;;;;;;24.92;40.64;100338.19;4468209;32;33010;-67
2023/10/04 04:58:52;;;;;;;5.30;2.33;;;;;;;24.93;40.67;100340.69;4483275;32;33573;-69
2023/10/04 05:01:21;;;;;;;5.82;2.30;;;;;;;24.92;40.63;100344.50;4482954;32;33867;-67
2023/10/04 05:03:52;;;;;;;5.22;2.00;;;;;;;24.96;40.64;100342.16;4482893;32;33573;-67
2023/10/04 05:06:22;;;;;;;5.18;2.17;;;;;;;24.94;40.65;100339.63;4456662;32;33937;-68
2023/10/04 05:08:54;;;;;;;5.32;2.15;;;;;;;24.96;40.74;100355.81;4469194;32;33742;-67
2023/10/04 05:11:22;;;;;;;4.65;2.08;;;;;;;24.95;40.65;100367.78;4482879;32;32602;-66
2023/10/04 05:13:51;;;;;;;6.47;2.08;;;;;;;24.93;40.63;100362.53;4484504;32;33832;-67
2023/10/04 05:16:18;;;;;;;4.28;2.22;;;;;;;24.93;40.58;100375.34;4484894;32;33963;-70
2023/10/04 05:18:46;;;;;;;6.00;2.03;;;;;;;24.93;40.56;100370.72;4485070;32;33936;-68
2023/10/04 05:21:15;;;;;;;4.22;2.00;;;;;;;24.93;40.56;100367.16;4484397;32;32757;-66
2023/10/04 05:23:44;;;;;;;3.60;1.83;;;;;;;24.92;40.59;100373.69;4482873;31;33981;-68
2023/10/04 05:26:12;;;;;;;4.28;2.00;;;;;;;24.95;40.74;100375.97;4483075;32;34729;-69
2023/10/04 05:28:40;;;;;;;6.70;2.47;;;;;;;24.94;40.64;100394.22;4485058;32;34058;-68
2023/10/04 05:31:11;;;;;;;4.15;1.92;;;;;;;24.97;40.66;100386.66;4484736;32;33309;-68
2023/10/04 05:33:39;;;;;;;4.28;2.10;;;;;;;24.99;40.70;100409.94;4470956;32;34390;-68
2023/10/04 05:36:07;;;;;;;7.97;2.22;;;;;;;24.94;40.73;100398.84;4484707;32;33726;-67
2023/10/04 05:38:35;;;;;;;5.62;2.08;;;;;;;24.92;40.72;100406.44;4484838;32;34829;-67
2023/10/04 05:41:03;;;;;;;5.72;2.40;;;;;;;24.93;40.78;100414.41;4484886;32;34135;-66
2023/10/04 05:43:34;;;;;;;13.65;3.03;;;;;;;24.88;40.91;100416.97;4484901;32;33435;-70
2023/10/04 05:46:04;;;;;;;13.60;2.70;;;;;;;24.85;41.17;100422.03;4484839;32;34658;-70
2023/10/04 05:48:34;;;;;;;14.32;2.70;;;;;;;24.87;41.01;100437.13;4484629;32;33499;-70
2023/10/04 05:51:06;;;;;;;8.82;2.22;;;;;;;24.90;40.87;100427.66;4484568;32;34260;-70
2023/10/04 05:53:34;;;;;;;5.82;2.10;;;;;;;24.90;40.66;100431.25;4483991;32;33895;-67
2023/10/04 05:56:03;;;;;;;8.63;2.50;;;;;;;24.91;40.55;100440.28;4470308;32;33324;-70
2023/10/04 05:58:31;;;;;;;8.70;2.47;;;;;;;24.90;40.50;100438.56;4483782;32;32662;-69
2023/10/04 06:00:59;;;;;;;6.70;2.20;;;;;;;24.91;40.48;100443.00;4484783;32;33473;-69
2023/10/04 06:03:27;;;;;;;5.70;2.33;;;;;;;24.91;40.47;100440.28;4470296;32;33764;-70
2023/10/04 06:05:59;;;;;;;6.47;1.90;;;;;;;24.92;40.48;100458.31;4484111;32;33750;-71
2023/10/04 06:08:27;;;;;;;7.37;2.50;;;;;;;24.93;40.47;100462.72;4468487;32;33454;-71
2023/10/04 06:10:55;;;;;;;8.60;2.92;;;;;;;24.92;40.43;100480.16;4469770;32;34144;-67
2023/10/04 06:13:22;;;;;;;8.38;2.70;;;;;;;24.92;40.37;100485.59;4470371;32;34681;-69
2023/10/04 06:15:59;;;;;;;6.20;2.47;;;;;;;24.92;40.38;100485.59;4444943;32;33322;-71
2023/10/04 06:18:28;;;;;;;8.35;2.37;;;;;;;24.91;40.32;100498.44;4458963;32;34648;-70
2023/10/04 06:21:01;;;;;;;7.18;2.45;;;;;;;24.91;40.34;100511.25;4470464;32;34432;-65
2023/10/04 06:23:31;;;;;;;9.10;2.67;;;;;;;24.90;40.39;100513.12;4456554;32;33064;-66
2023/10/04 06:25:59;;;;;;;5.97;2.42;;;;;;;24.91;40.38;100514.81;4445363;32;32878;-68
2023/10/04 06:28:28;;;;;;;8.10;2.30;;;;;;;24.88;40.56;100514.41;4470529;32;34306;-68
2023/10/04 06:30:56;;;;;;;7.40;2.75;;;;;;;24.85;40.65;100517.56;4457076;32;33075;-67
2023/10/04 06:33:25;;;;;;;6.85;2.72;;;;;;;24.83;40.71;100531.44;4470372;32;34597;-67
2023/10/04 06:35:53;;;;;;;6.35;2.55;;;;;;;24.82;40.78;100532.50;4457072;32;33250;-67
2023/10/04 06:38:20;;;;;;;8.13;2.55;;;;;;;24.80;40.87;100534.59;4457178;32;32718;-67
2023/10/04 06:40:48;;;;;;;9.15;2.70;;;;;;;24.80;40.88;100540.03;4470147;32;34239;-67
2023/10/04 06:43:16;;;;;;;9.70;2.40;;;;;;;24.80;40.91;100536.47;4470184;32;33087;-66
2023/10/04 06:45:44;;;;;;;6.75;2.30;;;;;;;24.79;40.90;100540.28;4457181;32;33616;-68
2023/10/04 06:48:12;;;;;;;7.00;2.28;;;;;;;24.79;40.96;100551.19;4470205;32;34670;-68
2023/10/04 06:50:39;;;;;;;7.68;2.50;;;;;;;24.78;40.95;100539.44;4457335;32;33255;-68
2023/10/04 06:53:10;;;;;;;8.35;3.05;;;;;;;24.77;41.05;100535.03;4469828;32;32983;-68
2023/10/04 06:55:38;;;;;;;7.75;2.67;;;;;;;24.78;41.04;100530.41;4484347;32;33678;-68
2023/10/04 06:58:10;;;;;;;6.18;2.37;;;;;;;24.78;41.05;100539.44;4444463;32;32753;-68
2023/10/04 07:00:38;;;;;;;12.15;3.00;;;;;;;24.78;40.90;100530.41;4470642;32;33204;-68
2023/10/04 07:03:06;;;;;;;4.78;2.22;;;;;;;24.78;40.88;100527.69;4455129;32;32774;-68
2023/10/04 07:05:38;;;;;;;7.25;2.33;;;;;;;24.77;41.02;100534.22;4469143;32;34034;-68
2023/10/04 07:08:08;;;;;;;6.53;2.47;;;;;;;24.78;40.98;100530.41;4457048;32;32896;-68
2023/10/04 07:10:38;;;;;;;7.28;2.35;;;;;;;24.75;41.01;100537.12;4457671;32;34329;-67
2023/10/04 07:13:07;;;;;;;7.07;2.37;;;;;;;24.77;40.94;100550.59;4469953;32;33697;-68
2023/10/04 07:15:41;;;;;;;7.00;2.33;;;;;;;24.76;40.84;100557.94;4457563;32;34037;-68
2023/10/04 07:18:11;;;;;;;6.25;2.70;;;;;;;24.77;40.82;100562.34;4471106;32;34354;-68
2023/10/04 07:20:39;;;;;;;7.68;2.58;;;;;;;24.76;40.79;100548.87;4431818;32;32375;-68
2023/10/04 07:23:08;;;;;;;5.45;2.12;;;;;;;24.75;40.79;100539.88;4469859;32;33340;-68
2023/10/04 07:25:47;;;;;;;9.82;3.17;;;;;;;24.76;40.82;100541.56;4456596;32;33865;-68
2023/10/04 07:28:15;;;;;;;7.65;2.08;;;;;;;24.77;40.83;100536.94;4454171;32;32857;-68
2023/10/04 07:30:43;;;;;;;5.75;1.92;;;;;;;24.75;40.79;100539.88;4454430;32;33188;-68
2023/10/04 07:33:11;;;;;;;6.25;2.20;;;;;;;24.75;40.83;100539.88;4453880;32;32715;-68
2023/10/04 07:35:39;;;;;;;8.15;2.60;;;;;;;24.74;40.85;100554.56;4441081;32;32878;-67
2023/10/04 07:38:07;;;;;;;5.75;2.40;;;;;;;24.75;40.92;100586.25;4468443;32;33933;-68
2023/10/04 07:40:35;;;;;;;6.72;1.87;;;;;;;24.75;40.56;100610.00;4428725;32;32059;-68
2023/10/04 07:43:03;;;;;;;7.62;2.50;;;;;;;24.74;40.61;100613.78;4454419;32;33874;-68
2023/10/04 07:45:31;;;;;;;3.83;2.20;;;;;;;24.74;40.59;100608.31;4441064;32;33618;-68
2023/10/04 07:48:01;;;;;;;6.30;1.97;;;;;;;24.75;40.69;100601.81;4454370;32;33698;-68
2023/10/04 07:50:29;;;;;;;5.15;2.22;;;;;;;24.75;40.81;100585.44;4441613;32;32906;-68
2023/10/04 07:52:59;;;;;;;4.97;2.40;;;;;;;24.75;40.65;100579.97;4468165;32;34783;-68
2023/10/04 07:55:27;;;;;;;5.72;2.10;;;;;;;24.75;40.65;100585.44;4428995;32;33961;-68
2023/10/04 07:58:06;;;;;;;6.18;2.20;;;;;;;24.73;40.74;100593.84;4454175;32;33722;-68
2023/10/04 08:00:36;;;;;;;5.90;2.35;;;;;;;24.73;40.77;100599.31;4441918;32;32177;-68
2023/10/04 08:03:06;;;;;;;4.45;2.08;;;;;;;24.73;40.73;100593.84;4441615;32;32884;-68
2023/10/04 08:05:35;;;;;;;;;;;;;;;24.73;40.64;100595.75;4441650;32;33961;-68
2023/10/04 08:08:04;;;;;;;6.40;2.30;;;;;;;24.81;40.56;100600.97;4454259;32;34939;-67
2023/10/04 08:10:35;;;;;;;9.75;2.30;;;;;;;24.74;40.59;100605.59;4441787;32;32960;-68
2023/10/04 08:13:03;;;;;;;6.87;2.03;;;;;;;24.73;40.62;100598.47;4415704;32;33688;-68
2023/10/04 08:15:32;;;;;;;5.53;1.80;;;;;;;24.71;40.09;100606.84;4441594;32;33479;-67
2023/10/04 08:18:01;;;;;;;6.15;2.10;;;;;;;24.70;40.12;100610.63;4441623;32;33825;-68
2023/10/04 08:20:29;;;;;;;4.40;2.10;;;;;;;24.70;40.19;100613.37;4441210;32;33574;-67
2023/10/04 08:22:58;;;;;;;7.18;2.35;;;;;;;24.70;40.06;100621.56;4441006;32;34735;-68
2023/10/04 08:25:29;;;;;;;7.50;2.33;;;;;;;24.70;39.71;100616.09;4453909;32;34769;-68
2023/10/04 08:27:56;;;;;;;6.82;2.05;;;;;;;24.68;39.49;100613.59;4441538;32;34592;-68
2023/10/04 08:30:25;;;;;;;4.97;2.17;;;;;;;24.66;39.55;100612.94;4440897;32;33365;-69
2023/10/04 08:32:53;;;;;;;6.30;2.00;;;;;;;24.65;39.77;100624.94;4454046;32;33828;-69
2023/10/04 08:35:21;;;;;;;5.80;2.42;;;;;;;24.66;39.98;100623.87;4453684;32;34553;-69
2023/10/04 08:37:53;;;;;;;6.00;2.17;;;;;;;24.66;40.08;100625.75;4440757;32;32737;-69
2023/10/04 08:40:22;;;;;;;6.70;2.37;;;;;;;24.66;40.14;100623.87;4453417;32;32983;-68
2023/10/04 08:42:50;;;;;;;4.78;1.90;;;;;;;24.66;40.08;100615.69;4453239;32;32987;-68
2023/10/04 08:45:19;;;;;;;7.22;2.12;;;;;;;24.68;39.53;100627.22;4467617;32;34745;-68
2023/10/04 08:47:59;;;;;;;7.97;2.17;;;;;;;24.65;39.18;100616.75;4428720;32;34511;-68
2023/10/04 08:50:30;;;;;;;6.03;2.08;;;;;;;24.65;39.11;100632.28;4442118;32;33575;-68
2023/10/04 08:53:04;;;;;;;6.15;2.20;;;;;;;24.62;38.92;100636.28;4469435;32;33048;-68
2023/10/04 08:55:41;;;;;;;6.15;2.28;;;;;;;24.58;38.74;100629.59;4443291;32;34746;-68
2023/10/04 08:58:09;;;;;;;4.70;1.70;;;;;;;24.59;38.87;100647.63;4443637;32;33793;-68
2023/10/04 09:00:37;;;;;;;9.23;2.12;;;;;;;24.58;38.87;100647.84;4458128;32;33267;-68
2023/10/04 09:03:04;;;;;;;5.53;2.00;;;;;;;24.56;38.74;100642.59;4470836;32;33709;-68
2023/10/04 09:05:33;;;;;;;4.68;1.83;;;;;;;24.56;38.80;100636.28;4471047;32;34025;-68
2023/10/04 09:08:04;;;;;;;6.00;1.80;;;;;;;24.55;38.76;100621.81;4458155;32;33134;-68
2023/10/04 09:10:36;;;;;;;4.40;1.62;;;;;;;24.55;38.72;100632.72;4458782;32;34187;-68
2023/10/04 09:13:04;;;;;;;4.87;1.90;;;;;;;24.54;38.59;100636.50;4457974;32;34008;-68
2023/10/04 09:15:32;;;;;;;3.60;1.70;;;;;;;24.54;38.53;100627.50;4457906;32;33491;-68
2023/10/04 09:18:02;;;;;;;4.20;1.65;;;;;;;24.52;38.67;100627.69;4470932;32;34574;-68
2023/10/04 09:20:32;;;;;;;5.72;1.98;;;;;;;24.52;38.58;100630.41;4445884;32;34169;-68
2023/10/04 09:22:59;;;;;;;4.95;1.83;;;;;;;24.51;38.32;100633.37;4471109;32;34553;-68
2023/10/04 09:25:37;;;;;;;4.32;1.77;;;;;;;24.50;38.34;100628.97;4456551;32;34703;-68
2023/10/04 09:28:07;;;;;;;5.22;2.05;;;;;;;24.50;38.26;100628.97;4459119;32;33604;-69
2023/10/04 09:30:36;;;;;;;7.78;2.15;;;;;;;24.49;38.37;100632.75;4442527;32;32604;-69
2023/10/04 09:33:05;;;;;;;;;;;;;;;24.49;38.23;100647.22;4443052;32;33939;-69
2023/10/04 09:35:43;;;;;;;4.47;2.22;;;;;;;24.57;38.09;100651.59;4455060;32;34009;-68
2023/10/04 09:38:15;;;;;;;6.40;2.03;;;;;;;24.51;38.22;100641.56;4442056;32;34053;-69
2023/10/04 09:40:53;;;;;;;4.80;1.80;;;;;;;24.46;38.24;100646.81;4442314;32;33255;-68
2023/10/04 09:43:35;;;;;;;4.53;1.77;;;;;;;24.47;38.37;100646.59;4455109;32;33139;-69
2023/10/04 09:46:07;;;;;;;7.68;2.00;;;;;;;24.48;38.41;100644.69;4442789;32;33452;-68
2023/10/04 09:48:37;;;;;;;4.18;1.90;;;;;;;24.46;38.18;100647.66;4455234;32;34390;-69
2023/10/04 09:51:06;;;;;;;3.67;1.70;;;;;;;24.45;38.00;100656.88;4455219;32;34168;-69
2023/10/04 09:53:38;;;;;;;2.78;1.58;;;;;;;24.45;37.99;100667.81;4442577;32;34525;-69
2023/10/04 09:56:07;;;;;;;3.08;1.50;;;;;;;24.46;37.97;100672.19;4443272;32;33740;-69
2023/10/04 09:58:35;;;;;;;5.97;1.75;;;;;;;24.46;38.20;100676.81;4442352;32;33132;-69
2023/10/04 10:01:08;;;;;;;3.72;1.55;;;;;;;24.46;38.46;100669.47;4429410;32;33328;-69
2023/10/04 10:03:50;;;;;;;3.67;1.67;;;;;;;24.46;38.38;100672.19;4442539;32;34657;-69
2023/10/04 10:06:22;;;;;;;6.22;1.80;;;;;;;24.49;38.30;100671.78;4442033;32;33141;-69
2023/10/04 10:08:56;;;;;;;4.78;1.67;;;;;;;24.47;38.19;100665.69;4442036;32;34666;-69
2023/10/04 10:11:25;;;;;;;4.35;1.70;;;;;;;24.50;38.03;100669.91;4442217;32;33345;-69
2023/10/04 10:13:53;;;;;;;3.28;1.67;;;;;;;24.49;37.91;100670.94;4455009;32;32403;-70
2023/10/04 10:16:21;;;;;;;3.67;1.75;;;;;;;24.48;37.92;100671.97;4454786;32;34736;-69
2023/10/04 10:18:49;;;;;;;5.43;1.80;;;;;;;24.49;37.91;100673.69;4442276;32;34323;-69
2023/10/04 10:21:17;;;;;;;3.85;2.12;;;;;;;24.48;37.62;100671.97;4429703;32;33491;-69
2023/10/04 10:23:57;;;;;;;4.00;2.00;;;;;;;24.47;37.36;100673.88;4454514;32;32992;-69
2023/10/04 10:26:26;;;;;;;4.47;2.08;;;;;;;24.48;37.22;100671.97;4441860;32;32621;-69
2023/10/04 10:29:03;;;;;;;3.25;1.50;;;;;;;24.46;37.33;100674.09;4454733;32;33944;-69
2023/10/04 10:31:32;;;;;;;5.12;1.80;;;;;;;24.46;37.24;100672.19;4429894;32;32459;-69
2023/10/04 10:34:03;;;;;;;4.43;1.75;;;;;;;24.43;37.00;100669.88;4454349;32;33678;-69
2023/10/04 10:36:32;;;;;;;7.70;2.00;;;;;;;24.43;36.87;100673.47;4442187;32;33997;-69
2023/10/04 10:39:00;;;;;;;5.78;1.75;;;;;;;24.43;36.91;100675.34;4441870;32;32397;-69
2023/10/04 10:41:28;;;;;;;4.60;1.90;;;;;;;24.42;37.06;100677.22;4441566;32;33412;-69
2023/10/04 10:44:14;;;;;;;4.12;1.75;;;;;;;24.42;37.04;100676.41;4454718;32;32567;-69
2023/10/04 10:47:20;;;;;;;5.07;1.77;;;;;;;24.45;36.93;100675.16;4468596;32;34637;-69
2023/10/04 10:49:50;;;;;;;4.62;1.75;;;;;;;24.44;37.13;100663.41;4454318;32;33687;-69
2023/10/04 10:52:24;;;;;;;4.87;1.60;;;;;;;24.42;37.06;100673.66;4468700;32;33318;-69
2023/10/04 10:54:53;;;;;;;3.83;1.70;;;;;;;24.41;36.90;100670.09;4454397;32;34754;-69
2023/10/04 10:57:21;;;;;;;5.55;1.70;;;;;;;24.45;36.96;100669.69;4454258;32;33924;-67
2023/10/04 10:59:56;;;;;;;3.67;1.77;;;;;;;24.44;37.02;100666.12;4429023;32;32853;-69
2023/10/04 11:02:24;;;;;;;3.55;1.35;;;;;;;24.49;36.88;100660.87;4429669;32;31694;-69
2023/10/04 11:04:52;;;;;;;2.65;1.33;;;;;;;24.50;36.89;100657.09;4454779;32;33950;-69
2023/10/04 11:07:21;;;;;;;6.03;1.80;;;;;;;24.52;37.09;100663.16;4441833;32;33811;-69
2023/10/04 11:09:54;;;;;;;4.03;1.70;;;;;;;24.54;36.78;100658.34;4453871;32;34575;-69
2023/10/04 11:12:22;;;;;;;5.37;1.90;;;;;;;24.55;36.86;100654.56;4441946;32;33799;-69
2023/10/04 11:14:51;;;;;;;3.40;1.70;;;;;;;24.55;36.76;100657.28;4441223;32;34635;-70
2023/10/04 11:17:20;;;;;;;5.32;2.00;;;;;;;24.57;36.91;100648.88;4469342;32;33947;-69
2023/10/04 11:19:50;;;;;;;4.07;1.70;;;;;;;24.56;36.99;100653.50;4459294;32;34675;-67
2023/10/04 11:22:22;;;;;;;5.07;2.00;;;;;;;24.57;37.05;100655.16;4470592;32;34271;-69
2023/10/04 11:24:50;;;;;;;5.28;2.00;;;;;;;24.58;37.10;100654.13;4467900;32;32893;-68
2023/10/04 11:27:22;;;;;;;3.65;1.73;;;;;;;24.59;37.17;100653.09;4453448;32;33963;-68
2023/10/04 11:29:50;;;;;;;6.25;2.00;;;;;;;24.60;37.16;100648.47;4453985;32;34349;-68
2023/10/04 11:32:21;;;;;;;6.07;2.00;;;;;;;24.62;37.18;100651.78;4442166;32;34777;-67
2023/10/04 11:34:49;;;;;;;7.43;2.05;;;;;;;24.62;37.25;100657.25;4461111;32;34669;-69
2023/10/04 11:37:16;;;;;;;5.65;2.12;;;;;;;24.62;37.27;100652.66;4455610;32;33809;-66
2023/10/04 11:39:44;;;;;;;4.65;1.87;;;;;;;24.64;37.34;100646.97;4443227;32;32588;-68